createdAt,value
2022-12-12T00:00:39.443Z,89.51
2022-12-12T00:02:39.481Z,89.61
2022-12-12T00:03:39.522Z,89.61
2022-12-12T00:04:39.397Z,89.72
2022-12-12T00:05:39.379Z,90.07
2022-12-12T00:06:39.367Z,90.60
2022-12-12T00:07:39.354Z,90.91
2022-12-12T00:08:39.343Z,91.47
2022-12-12T00:09:39.328Z,91.68
2022-12-12T00:10:39.316Z,91.89
2022-12-12T00:11:39.302Z,92.30
2022-12-12T00:12:44.557Z,91.99
2022-12-12T00:13:39.306Z,92.51
2022-12-12T00:14:39.268Z,92.62
2022-12-12T00:15:39.281Z,92.20
2022-12-12T00:16:39.241Z,92.20
2022-12-12T00:17:39.228Z,92.20
2022-12-12T00:18:39.223Z,92.41
2022-12-12T00:19:39.203Z,92.30
2022-12-12T00:20:39.190Z,92.20
2022-12-12T00:21:39.177Z,92.20
2022-12-12T00:22:39.164Z,92.10
2022-12-12T00:23:39.151Z,91.95
2022-12-12T00:24:39.140Z,91.85
2022-12-12T00:25:39.126Z,91.85
2022-12-12T00:26:39.114Z,92.05
2022-12-12T00:27:39.101Z,92.05
2022-12-12T00:28:39.093Z,91.85
2022-12-12T00:29:39.103Z,91.80
2022-12-12T00:30:39.064Z,91.60
2022-12-12T00:31:39.092Z,91.49
2022-12-12T00:32:39.039Z,91.35
2022-12-12T00:33:39.025Z,91.24
2022-12-12T00:34:39.019Z,90.47
2022-12-12T00:35:38.999Z,89.84
2022-12-12T00:36:38.988Z,89.32
2022-12-12T00:37:38.974Z,88.90
2022-12-12T00:38:38.963Z,88.59
2022-12-12T00:39:38.950Z,88.39
2022-12-12T00:40:38.937Z,88.28
2022-12-12T00:41:38.923Z,88.49
2022-12-12T00:42:38.915Z,88.39
2022-12-12T00:43:38.897Z,88.39
2022-12-12T00:44:38.885Z,88.39
2022-12-12T00:45:38.900Z,88.39
2022-12-12T00:46:38.913Z,88.39
2022-12-12T00:47:38.848Z,88.18
2022-12-12T00:48:38.835Z,88.18
2022-12-12T00:49:38.822Z,88.07
2022-12-12T00:50:38.811Z,88.18
2022-12-12T00:51:38.798Z,88.28
2022-12-12T00:52:38.785Z,88.07
2022-12-12T00:53:38.772Z,88.18
2022-12-12T00:54:38.760Z,88.39
2022-12-12T00:55:38.746Z,88.28
2022-12-12T00:56:38.735Z,88.28
2022-12-12T00:57:38.724Z,88.28
2022-12-12T00:58:38.711Z,88.07
2022-12-12T00:59:38.695Z,88.22
2022-12-12T01:00:38.688Z,88.67
2022-12-12T01:01:38.748Z,89.23
2022-12-12T01:02:38.686Z,90.28
2022-12-12T01:03:38.647Z,90.80
2022-12-12T01:04:38.633Z,91.22
2022-12-12T01:05:38.620Z,91.47
2022-12-12T01:06:38.613Z,91.79
2022-12-12T01:07:38.595Z,91.79
2022-12-12T01:08:38.584Z,92.05
2022-12-12T01:09:38.572Z,91.99
2022-12-12T01:10:38.557Z,92.10
2022-12-12T01:11:38.546Z,92.30
2022-12-12T01:12:38.532Z,92.20
2022-12-12T01:13:38.518Z,92.20
2022-12-12T01:14:38.507Z,92.45
2022-12-12T01:15:38.496Z,93.04
2022-12-12T01:16:38.548Z,93.35
2022-12-12T01:17:38.496Z,93.04
2022-12-12T01:18:38.457Z,93.24
2022-12-12T01:19:38.446Z,93.24
2022-12-12T01:20:38.432Z,93.10
2022-12-12T01:21:38.418Z,92.58
2022-12-12T01:22:38.409Z,92.30
2022-12-12T01:23:38.395Z,92.62
2022-12-12T01:24:38.382Z,92.79
2022-12-12T01:25:38.368Z,92.37
2022-12-12T01:26:38.357Z,92.10
2022-12-12T01:27:38.342Z,92.73
2022-12-12T01:28:38.331Z,93.04
2022-12-12T01:29:38.318Z,93.24
2022-12-12T01:30:38.308Z,93.31
2022-12-12T01:31:38.386Z,93.41
2022-12-12T01:32:38.282Z,93.26
2022-12-12T01:33:38.294Z,93.26
2022-12-12T01:34:38.255Z,92.81
2022-12-12T01:35:38.242Z,92.60
2022-12-12T01:36:38.230Z,92.18
2022-12-12T01:37:38.216Z,91.24
2022-12-12T01:38:38.203Z,90.30
2022-12-12T01:39:38.192Z,90.66
2022-12-12T01:40:38.180Z,91.11
2022-12-12T01:41:38.166Z,91.85
2022-12-12T01:42:38.155Z,92.10
2022-12-12T01:43:38.140Z,92.62
2022-12-12T01:44:38.134Z,93.35
2022-12-12T01:45:38.116Z,93.77
2022-12-12T01:46:38.226Z,94.18
2022-12-12T01:47:38.091Z,94.29
2022-12-12T01:48:38.080Z,94.29
2022-12-12T01:49:38.091Z,93.92
2022-12-12T01:50:38.053Z,94.12
2022-12-12T01:51:38.039Z,94.33
2022-12-12T01:52:38.032Z,94.33
2022-12-12T01:53:38.013Z,94.39
2022-12-12T01:54:38.005Z,94.18
2022-12-12T01:55:37.989Z,93.98
2022-12-12T01:56:37.977Z,93.87
2022-12-12T01:57:37.962Z,93.45
2022-12-12T01:58:37.952Z,93.35
2022-12-12T01:59:37.938Z,93.81
2022-12-12T02:00:37.995Z,93.77
2022-12-12T02:01:37.961Z,93.92
2022-12-12T02:02:37.909Z,94.23
2022-12-12T02:03:37.887Z,94.39
2022-12-12T02:04:37.875Z,94.18
2022-12-12T02:05:37.885Z,94.04
2022-12-12T02:06:37.854Z,93.67
2022-12-12T02:07:37.836Z,93.67
2022-12-12T02:08:37.825Z,93.45
2022-12-12T02:09:37.820Z,93.35
2022-12-12T02:10:37.800Z,93.67
2022-12-12T02:11:37.796Z,93.24
2022-12-12T02:12:37.775Z,93.87
2022-12-12T02:13:37.762Z,93.45
2022-12-12T02:14:37.758Z,93.77
2022-12-12T02:15:37.735Z,93.98
2022-12-12T02:16:37.802Z,94.39
2022-12-12T02:17:37.723Z,94.50
2022-12-12T02:18:37.698Z,94.29
2022-12-12T02:19:37.687Z,94.14
2022-12-12T02:20:37.676Z,94.04
2022-12-12T02:21:37.688Z,93.52
2022-12-12T02:22:37.649Z,93.31
2022-12-12T02:23:37.636Z,93.06
2022-12-12T02:24:37.626Z,92.95
2022-12-12T02:25:37.610Z,92.43
2022-12-12T02:26:37.599Z,92.43
2022-12-12T02:27:37.587Z,92.22
2022-12-12T02:28:37.575Z,92.32
2022-12-12T02:29:37.561Z,92.01
2022-12-12T02:30:37.548Z,92.22
2022-12-12T02:31:37.611Z,92.18
2022-12-12T02:32:37.523Z,92.07
2022-12-12T02:33:37.510Z,91.76
2022-12-12T02:34:37.500Z,91.39
2022-12-12T02:35:37.490Z,91.80
2022-12-12T02:36:37.472Z,91.95
2022-12-12T02:37:37.481Z,91.95
2022-12-12T02:38:37.447Z,92.68
2022-12-12T02:39:37.434Z,92.99
2022-12-12T02:40:37.421Z,93.20
2022-12-12T02:41:37.409Z,93.31
2022-12-12T02:42:37.396Z,93.31
2022-12-12T02:43:37.384Z,93.10
2022-12-12T02:44:37.369Z,93.31
2022-12-12T02:45:37.359Z,93.52
2022-12-12T02:46:37.392Z,93.41
2022-12-12T02:47:37.336Z,93.31
2022-12-12T02:48:37.320Z,92.99
2022-12-12T02:49:37.308Z,93.10
2022-12-12T02:50:37.294Z,93.56
2022-12-12T02:51:37.282Z,93.67
2022-12-12T02:52:37.268Z,94.08
2022-12-12T02:53:37.279Z,94.08
2022-12-12T02:54:37.248Z,94.08
2022-12-12T02:55:37.233Z,94.08
2022-12-12T02:56:37.224Z,94.08
2022-12-12T02:57:37.208Z,93.98
2022-12-12T02:58:37.195Z,94.08
2022-12-12T02:59:37.184Z,93.77
2022-12-12T03:00:37.203Z,94.08
2022-12-12T03:01:37.218Z,94.50
2022-12-12T03:02:37.143Z,94.81
2022-12-12T03:03:37.131Z,94.18
2022-12-12T03:04:37.116Z,94.18
2022-12-12T03:05:37.106Z,94.71
2022-12-12T03:06:40.987Z,94.81
2022-12-12T03:07:37.080Z,94.67
2022-12-12T03:08:37.070Z,94.56
2022-12-12T03:09:37.092Z,94.35
2022-12-12T03:10:37.041Z,93.73
2022-12-12T03:11:37.031Z,93.31
2022-12-12T03:12:37.016Z,93.62
2022-12-12T03:13:37.004Z,93.73
2022-12-12T03:14:36.991Z,93.56
2022-12-12T03:15:36.979Z,93.83
2022-12-12T03:16:36.997Z,93.83
2022-12-12T03:17:36.956Z,93.93
2022-12-12T03:18:36.940Z,93.83
2022-12-12T03:19:36.928Z,93.52
2022-12-12T03:20:36.915Z,93.67
2022-12-12T03:21:36.909Z,94.50
2022-12-12T03:22:36.890Z,94.08
2022-12-12T03:23:36.878Z,94.18
2022-12-12T03:24:36.864Z,94.08
2022-12-12T03:25:36.879Z,93.98
2022-12-12T03:26:36.839Z,94.29
2022-12-12T03:27:36.828Z,94.35
2022-12-12T03:28:36.813Z,93.93
2022-12-12T03:29:36.802Z,93.87
2022-12-12T03:30:36.789Z,93.87
2022-12-12T03:31:36.796Z,94.08
2022-12-12T03:32:36.765Z,94.29
2022-12-12T03:33:36.753Z,94.35
2022-12-12T03:34:36.738Z,93.98
2022-12-12T03:35:36.725Z,94.08
2022-12-12T03:36:36.712Z,94.29
2022-12-12T03:37:36.700Z,94.14
2022-12-12T03:38:36.685Z,94.04
2022-12-12T03:39:36.677Z,93.52
2022-12-12T03:40:36.661Z,93.10
2022-12-12T03:41:36.719Z,93.10
2022-12-12T03:42:36.636Z,93.10
2022-12-12T03:43:36.626Z,93.52
2022-12-12T03:44:41.266Z,92.99
2022-12-12T03:45:36.693Z,92.99
2022-12-12T03:46:36.585Z,92.79
2022-12-12T03:47:36.579Z,92.54
2022-12-12T03:48:36.561Z,92.54
2022-12-12T03:49:36.548Z,92.64
2022-12-12T03:50:36.534Z,92.32
2022-12-12T03:51:36.524Z,91.80
2022-12-12T03:52:36.509Z,91.22
2022-12-12T03:53:36.504Z,91.74
2022-12-12T03:54:36.488Z,92.26
2022-12-12T03:55:36.475Z,92.58
2022-12-12T03:56:36.458Z,93.04
2022-12-12T03:57:36.479Z,92.99
2022-12-12T03:58:36.433Z,93.10
2022-12-12T03:59:36.423Z,92.83
2022-12-12T04:00:36.423Z,93.10
2022-12-12T04:01:36.397Z,92.99
2022-12-12T04:02:36.433Z,92.95
2022-12-12T04:03:36.371Z,92.74
2022-12-12T04:04:36.358Z,92.54
2022-12-12T04:05:36.346Z,92.01
2022-12-12T04:06:36.332Z,92.01
2022-12-12T04:07:36.322Z,91.70
2022-12-12T04:08:36.307Z,91.07
2022-12-12T04:09:36.295Z,91.49
2022-12-12T04:10:36.282Z,91.43
2022-12-12T04:11:36.271Z,91.74
2022-12-12T04:12:36.256Z,91.85
2022-12-12T04:13:36.272Z,91.95
2022-12-12T04:14:36.231Z,92.12
2022-12-12T04:15:36.219Z,91.91
2022-12-12T04:16:36.237Z,91.85
2022-12-12T04:17:36.193Z,92.05
2022-12-12T04:18:36.180Z,92.16
2022-12-12T04:19:36.205Z,92.37
2022-12-12T04:20:36.154Z,92.58
2022-12-12T04:21:36.144Z,92.43
2022-12-12T04:22:36.128Z,92.22
2022-12-12T04:23:36.118Z,91.80
2022-12-12T04:24:36.104Z,91.74
2022-12-12T04:25:36.094Z,91.91
2022-12-12T04:26:36.078Z,92.01
2022-12-12T04:27:36.070Z,91.91
2022-12-12T04:28:36.056Z,91.91
2022-12-12T04:29:36.067Z,91.80
2022-12-12T04:30:36.029Z,91.29
2022-12-12T04:31:36.052Z,91.18
2022-12-12T04:32:36.002Z,91.18
2022-12-12T04:33:35.994Z,91.29
2022-12-12T04:34:35.976Z,91.39
2022-12-12T04:35:35.965Z,91.35
2022-12-12T04:36:35.951Z,91.24
2022-12-12T04:37:35.940Z,91.20
2022-12-12T04:38:35.927Z,91.30
2022-12-12T04:39:35.916Z,90.74
2022-12-12T04:40:35.901Z,90.32
2022-12-12T04:41:35.890Z,90.11
2022-12-12T04:42:35.878Z,89.91
2022-12-12T04:43:35.873Z,89.14
2022-12-12T04:44:35.850Z,88.62
2022-12-12T04:45:35.927Z,88.45
2022-12-12T04:46:35.824Z,88.34
2022-12-12T04:47:35.814Z,88.62
2022-12-12T04:48:38.570Z,88.31
2022-12-12T04:49:35.794Z,87.99
2022-12-12T04:50:35.775Z,87.89
2022-12-12T04:51:35.763Z,87.06
2022-12-12T04:52:35.747Z,87.03
2022-12-12T04:53:35.737Z,88.28
2022-12-12T04:54:35.723Z,89.05
2022-12-12T04:55:35.712Z,89.16
2022-12-12T04:56:35.698Z,89.26
2022-12-12T04:57:35.689Z,89.99
2022-12-12T04:58:35.673Z,90.20
2022-12-12T04:59:35.661Z,90.20
2022-12-12T05:00:35.648Z,89.78
2022-12-12T05:01:35.745Z,89.99
2022-12-12T05:02:35.676Z,90.10
2022-12-12T05:03:35.611Z,90.16
2022-12-12T05:04:35.598Z,90.05
2022-12-12T05:05:35.584Z,89.74
2022-12-12T05:06:35.570Z,89.64
2022-12-12T05:07:39.714Z,89.05
2022-12-12T05:08:35.545Z,89.16
2022-12-12T05:09:35.534Z,89.47
2022-12-12T05:10:35.520Z,90.03
2022-12-12T05:11:35.526Z,90.45
2022-12-12T05:12:35.495Z,90.55
2022-12-12T05:13:35.500Z,90.55
2022-12-12T05:14:35.490Z,90.72
2022-12-12T05:15:37.292Z,90.51
2022-12-12T05:16:35.488Z,90.72
2022-12-12T05:17:35.460Z,90.61
2022-12-12T05:18:35.418Z,89.99
2022-12-12T05:19:35.408Z,89.57
2022-12-12T05:20:35.393Z,90.03
2022-12-12T05:21:35.382Z,90.86
2022-12-12T05:22:35.369Z,90.76
2022-12-12T05:23:35.357Z,91.01
2022-12-12T05:24:35.342Z,91.49
2022-12-12T05:25:35.334Z,91.85
2022-12-12T05:26:35.317Z,92.22
2022-12-12T05:27:35.306Z,92.16
2022-12-12T05:28:35.291Z,91.95
2022-12-12T05:29:35.281Z,92.58
2022-12-12T05:30:35.353Z,92.89
2022-12-12T05:31:35.258Z,93.10
2022-12-12T05:32:35.242Z,93.10
2022-12-12T05:33:35.260Z,92.68
2022-12-12T05:34:35.217Z,92.47
2022-12-12T05:35:35.205Z,92.62
2022-12-12T05:36:35.191Z,93.14
2022-12-12T05:37:35.181Z,93.41
2022-12-12T05:38:35.168Z,93.20
2022-12-12T05:39:35.157Z,93.31
2022-12-12T05:40:35.140Z,93.73
2022-12-12T05:41:35.129Z,93.52
2022-12-12T05:42:35.116Z,92.99
2022-12-12T05:43:35.104Z,92.68
2022-12-12T05:44:35.090Z,93.24
2022-12-12T05:45:35.079Z,93.35
2022-12-12T05:46:35.065Z,93.67
2022-12-12T05:47:35.053Z,93.98
2022-12-12T05:48:35.040Z,93.98
2022-12-12T05:49:35.054Z,93.83
2022-12-12T05:50:35.016Z,93.73
2022-12-12T05:51:35.003Z,93.52
2022-12-12T05:52:34.989Z,93.52
2022-12-12T05:53:42.277Z,93.10
2022-12-12T05:54:34.966Z,93.41
2022-12-12T05:55:34.951Z,93.31
2022-12-12T05:56:34.938Z,93.24
2022-12-12T05:57:34.932Z,93.45
2022-12-12T05:58:34.916Z,93.67
2022-12-12T05:59:34.900Z,93.67
2022-12-12T06:00:34.889Z,93.45
2022-12-12T06:01:34.881Z,93.77
2022-12-12T06:02:34.984Z,93.98
2022-12-12T06:03:34.926Z,93.73
2022-12-12T06:04:34.837Z,93.52
2022-12-12T06:05:34.872Z,92.79
2022-12-12T06:06:34.811Z,92.68
2022-12-12T06:07:34.799Z,92.47
2022-12-12T06:08:34.846Z,92.26
2022-12-12T06:09:34.776Z,92.68
2022-12-12T06:10:34.759Z,92.68
2022-12-12T06:11:34.749Z,92.37
2022-12-12T06:12:34.736Z,91.95
2022-12-12T06:13:34.728Z,92.26
2022-12-12T06:14:34.715Z,92.16
2022-12-12T06:15:34.782Z,92.12
2022-12-12T06:16:34.690Z,91.54
2022-12-12T06:17:34.673Z,92.16
2022-12-12T06:18:34.661Z,91.95
2022-12-12T06:19:34.647Z,91.85
2022-12-12T06:20:34.635Z,91.85
2022-12-12T06:21:34.649Z,91.74
2022-12-12T06:22:34.609Z,91.99
2022-12-12T06:23:34.597Z,92.20
2022-12-12T06:24:34.585Z,92.41
2022-12-12T06:25:34.573Z,92.51
2022-12-12T06:26:34.557Z,92.73
2022-12-12T06:27:34.546Z,93.04
2022-12-12T06:28:34.533Z,92.99
2022-12-12T06:29:34.523Z,92.68
2022-12-12T06:30:34.506Z,92.47
2022-12-12T06:31:34.578Z,92.37
2022-12-12T06:32:34.482Z,91.74
2022-12-12T06:33:34.471Z,92.05
2022-12-12T06:34:34.457Z,91.74
2022-12-12T06:35:34.447Z,91.70
2022-12-12T06:36:34.432Z,91.60
2022-12-12T06:37:34.507Z,91.18
2022-12-12T06:38:34.407Z,90.60
2022-12-12T06:39:34.395Z,91.01
2022-12-12T06:40:34.382Z,91.32
2022-12-12T06:41:34.369Z,91.22
2022-12-12T06:42:34.355Z,91.29
2022-12-12T06:43:34.353Z,91.07
2022-12-12T06:44:34.331Z,90.86
2022-12-12T06:45:34.320Z,90.86
2022-12-12T06:46:34.377Z,90.66
2022-12-12T06:47:34.294Z,90.66
2022-12-12T06:48:34.284Z,90.45
2022-12-12T06:49:34.269Z,90.91
2022-12-12T06:50:34.255Z,91.47
2022-12-12T06:51:34.243Z,92.26
2022-12-12T06:52:34.229Z,92.26
2022-12-12T06:53:34.246Z,92.26
2022-12-12T06:54:34.205Z,92.05
2022-12-12T06:55:34.190Z,92.37
2022-12-12T06:56:34.179Z,92.26
2022-12-12T06:57:34.164Z,92.47
2022-12-12T06:58:34.155Z,92.05
2022-12-12T06:59:34.139Z,92.37
2022-12-12T07:00:34.129Z,92.51
2022-12-12T07:01:34.171Z,92.83
2022-12-12T07:02:34.133Z,93.10
2022-12-12T07:03:34.090Z,93.14
2022-12-12T07:04:34.078Z,92.99
2022-12-12T07:05:34.066Z,92.47
2022-12-12T07:06:34.056Z,92.20
2022-12-12T07:07:34.040Z,92.41
2022-12-12T07:08:34.027Z,92.47
2022-12-12T07:09:34.066Z,92.16
2022-12-12T07:10:34.002Z,92.05
2022-12-12T07:11:33.988Z,91.89
2022-12-12T07:12:33.978Z,92.10
2022-12-12T07:13:33.964Z,92.26
2022-12-12T07:14:33.952Z,92.26
2022-12-12T07:15:33.992Z,92.05
2022-12-12T07:16:33.926Z,91.85
2022-12-12T07:17:33.912Z,91.32
2022-12-12T07:18:33.902Z,91.01
2022-12-12T07:19:33.893Z,91.01
2022-12-12T07:20:33.879Z,91.32
2022-12-12T07:21:33.876Z,91.32
2022-12-12T07:22:33.851Z,91.22
2022-12-12T07:23:33.837Z,91.22
2022-12-12T07:24:33.826Z,91.01
2022-12-12T07:25:33.838Z,91.01
2022-12-12T07:26:33.801Z,90.97
2022-12-12T07:27:33.786Z,90.86
2022-12-12T07:28:33.775Z,90.66
2022-12-12T07:29:33.768Z,90.35
2022-12-12T07:30:33.750Z,90.45
2022-12-12T07:31:33.814Z,90.66
2022-12-12T07:32:33.724Z,90.86
2022-12-12T07:33:43.153Z,91.04
2022-12-12T07:34:35.698Z,90.82
2022-12-12T07:35:33.689Z,90.51
2022-12-12T07:36:33.673Z,89.99
2022-12-12T07:37:33.659Z,89.89
2022-12-12T07:38:33.649Z,89.67
2022-12-12T07:39:33.636Z,89.36
2022-12-12T07:40:33.621Z,89.47
2022-12-12T07:41:33.708Z,89.47
2022-12-12T07:42:33.597Z,89.36
2022-12-12T07:43:34.603Z,89.26
2022-12-12T07:44:33.572Z,89.41
2022-12-12T07:45:33.558Z,89.61
2022-12-12T07:46:33.593Z,89.82
2022-12-12T07:47:33.534Z,90.24
2022-12-12T07:48:33.522Z,90.55
2022-12-12T07:49:33.511Z,90.45
2022-12-12T07:50:33.501Z,90.45
2022-12-12T07:51:33.484Z,90.76
2022-12-12T07:52:33.473Z,90.86
2022-12-12T07:53:33.463Z,90.86
2022-12-12T07:54:33.448Z,91.04
2022-12-12T07:55:33.434Z,91.35
2022-12-12T07:56:33.423Z,91.30
2022-12-12T07:57:33.432Z,91.05
2022-12-12T07:58:33.400Z,90.60
2022-12-12T07:59:33.384Z,89.28
2022-12-12T08:00:33.372Z,89.49
2022-12-12T08:01:33.376Z,88.97
2022-12-12T08:03:33.335Z,87.93
2022-12-12T08:04:33.393Z,87.03
2022-12-12T08:05:33.310Z,88.22
2022-12-12T08:06:33.303Z,88.53
2022-12-12T08:07:33.288Z,88.11
2022-12-12T08:08:33.321Z,88.32
2022-12-12T08:09:33.261Z,88.74
2022-12-12T08:10:33.251Z,88.22
2022-12-12T08:11:33.238Z,88.57
2022-12-12T08:12:33.231Z,89.16
2022-12-12T08:13:33.244Z,88.95
2022-12-12T08:14:33.203Z,89.16
2022-12-12T08:15:33.191Z,88.74
2022-12-12T08:16:33.244Z,89.16
2022-12-12T08:17:33.165Z,89.16
2022-12-12T08:18:33.155Z,89.36
2022-12-12T08:19:33.144Z,89.09
2022-12-12T08:20:33.130Z,89.30
2022-12-12T08:21:33.117Z,89.67
2022-12-12T08:22:33.113Z,89.82
2022-12-12T08:23:33.148Z,89.72
2022-12-12T08:24:33.083Z,89.61
2022-12-12T08:25:33.068Z,89.67
2022-12-12T08:26:33.059Z,88.84
2022-12-12T08:27:33.044Z,88.74
2022-12-12T08:28:33.034Z,88.05
2022-12-12T08:29:33.050Z,88.15
2022-12-12T08:30:33.009Z,88.11
2022-12-12T08:31:33.049Z,88.18
2022-12-12T08:32:32.986Z,87.49
2022-12-12T08:33:32.976Z,87.13
2022-12-12T08:34:32.962Z,87.17
2022-12-12T08:35:32.948Z,87.49
2022-12-12T08:36:32.938Z,87.53
2022-12-12T08:37:32.924Z,87.73
2022-12-12T08:38:32.913Z,88.05
2022-12-12T08:39:32.901Z,88.42
2022-12-12T08:40:32.891Z,87.80
2022-12-12T08:41:32.877Z,88.11
2022-12-12T08:42:32.864Z,87.65
2022-12-12T08:43:32.857Z,87.13
2022-12-12T08:44:32.837Z,87.03
2022-12-12T08:45:32.850Z,86.72
2022-12-12T08:46:32.965Z,86.65
2022-12-12T08:47:32.799Z,86.86
2022-12-12T08:48:32.787Z,87.73
2022-12-12T08:49:32.774Z,88.26
2022-12-12T08:50:32.762Z,88.78
2022-12-12T08:51:32.751Z,89.20
2022-12-12T08:52:32.735Z,88.57
2022-12-12T08:53:32.722Z,88.74
2022-12-12T08:54:32.712Z,88.74
2022-12-12T08:55:32.697Z,88.70
2022-12-12T08:56:32.687Z,88.28
2022-12-12T08:57:32.671Z,86.93
2022-12-12T08:58:38.663Z,87.45
2022-12-12T08:59:32.645Z,87.65
2022-12-12T09:00:32.634Z,87.65
2022-12-12T09:01:32.722Z,86.93
2022-12-12T09:02:32.741Z,86.61
2022-12-12T09:03:32.597Z,86.40
2022-12-12T09:04:32.582Z,86.51
2022-12-12T09:05:32.567Z,86.51
2022-12-12T09:06:32.557Z,86.40
2022-12-12T09:07:32.544Z,86.61
2022-12-12T09:08:32.596Z,86.24
2022-12-12T09:09:32.518Z,86.76
2022-12-12T09:10:32.508Z,87.70
2022-12-12T09:11:32.494Z,88.07
2022-12-12T09:12:36.875Z,88.03
2022-12-12T09:13:32.467Z,87.57
2022-12-12T09:14:32.456Z,86.32
2022-12-12T09:15:32.441Z,86.08
2022-12-12T09:16:32.503Z,84.93
2022-12-12T09:17:32.540Z,84.86
2022-12-12T09:18:32.403Z,84.83
2022-12-12T09:19:32.391Z,84.45
2022-12-12T09:20:32.376Z,84.24
2022-12-12T09:21:32.362Z,84.41
2022-12-12T09:22:32.349Z,84.41
2022-12-12T09:23:32.334Z,84.03
2022-12-12T09:24:32.323Z,84.35
2022-12-12T09:25:32.313Z,84.55
2022-12-12T09:26:32.296Z,84.76
2022-12-12T09:27:32.281Z,84.66
2022-12-12T09:28:32.269Z,84.76
2022-12-12T09:29:32.257Z,84.45
2022-12-12T09:30:32.243Z,84.45
2022-12-12T09:31:32.287Z,85.18
2022-12-12T09:32:32.218Z,85.18
2022-12-12T09:33:32.227Z,84.86
2022-12-12T09:34:32.191Z,84.70
2022-12-12T09:35:32.178Z,85.74
2022-12-12T09:36:32.166Z,85.43
2022-12-12T09:37:32.156Z,85.43
2022-12-12T09:38:32.140Z,85.39
2022-12-12T09:39:32.128Z,85.53
2022-12-12T09:40:32.115Z,85.74
2022-12-12T09:41:32.113Z,85.11
2022-12-12T09:42:32.098Z,85.32
2022-12-12T09:43:32.079Z,85.63
2022-12-12T09:44:32.063Z,85.80
2022-12-12T09:45:32.092Z,85.84
2022-12-12T09:46:32.043Z,85.84
2022-12-12T09:47:32.023Z,85.11
2022-12-12T09:48:32.014Z,85.05
2022-12-12T09:49:32.025Z,85.15
2022-12-12T09:50:31.987Z,85.71
2022-12-12T09:51:31.971Z,86.19
2022-12-12T09:52:31.967Z,85.68
2022-12-12T09:53:31.944Z,86.09
2022-12-12T09:54:31.934Z,86.78
2022-12-12T09:55:31.919Z,85.99
2022-12-12T09:56:31.907Z,86.09
2022-12-12T09:57:31.892Z,85.88
2022-12-12T09:58:31.883Z,87.20
2022-12-12T09:59:31.866Z,87.99
2022-12-12T10:00:31.921Z,86.43
2022-12-12T10:01:31.843Z,85.14
2022-12-12T10:02:31.989Z,84.69
2022-12-12T10:03:31.818Z,83.44
2022-12-12T10:04:31.803Z,82.81
2022-12-12T10:05:31.825Z,82.36
2022-12-12T10:06:38.858Z,82.73
2022-12-12T10:07:33.766Z,82.59
2022-12-12T10:08:31.830Z,82.18
2022-12-12T10:09:31.739Z,81.21
2022-12-12T10:10:31.728Z,78.85
2022-12-12T10:11:31.721Z,77.81
2022-12-12T10:12:31.704Z,77.30
2022-12-12T10:13:31.692Z,77.99
2022-12-12T10:14:31.679Z,77.12
2022-12-12T10:15:31.663Z,77.92
2022-12-12T10:16:31.706Z,77.36
2022-12-12T10:17:31.646Z,75.60
2022-12-12T10:18:31.627Z,75.77
2022-12-12T10:19:31.613Z,75.36
2022-12-12T10:20:31.601Z,75.01
2022-12-12T10:21:31.616Z,74.67
2022-12-12T10:22:31.576Z,76.26
2022-12-12T10:23:31.561Z,76.84
2022-12-12T10:24:31.554Z,77.36
2022-12-12T10:25:31.536Z,76.05
2022-12-12T10:26:31.527Z,75.84
2022-12-12T10:27:31.519Z,76.47
2022-12-12T10:28:31.515Z,76.01
2022-12-12T10:29:32.194Z,75.29
2022-12-12T10:30:31.476Z,74.35
2022-12-12T10:31:31.533Z,74.32
2022-12-12T10:32:31.446Z,74.04
2022-12-12T10:33:31.432Z,74.42
2022-12-12T10:34:31.433Z,74.63
2022-12-12T10:35:31.702Z,75.08
2022-12-12T10:36:31.399Z,75.60
2022-12-12T10:37:31.417Z,75.50
2022-12-12T10:38:31.371Z,75.01
2022-12-12T10:39:31.357Z,75.36
2022-12-12T10:40:31.345Z,75.08
2022-12-12T10:41:31.330Z,76.12
2022-12-12T10:42:31.320Z,75.70
2022-12-12T10:43:31.304Z,75.08
2022-12-12T10:44:31.291Z,75.70
2022-12-12T10:45:31.401Z,76.26
2022-12-12T10:46:31.468Z,76.57
2022-12-12T10:47:31.255Z,75.74
2022-12-12T10:48:31.241Z,74.80
2022-12-12T10:49:31.228Z,75.39
2022-12-12T10:50:31.216Z,76.33
2022-12-12T10:51:31.217Z,76.50
2022-12-12T10:52:31.190Z,77.23
2022-12-12T10:53:31.202Z,76.57
2022-12-12T10:54:31.166Z,76.47
2022-12-12T10:55:31.149Z,77.16
2022-12-12T10:56:31.140Z,76.88
2022-12-12T10:57:31.126Z,74.21
2022-12-12T10:58:31.111Z,73.73
2022-12-12T10:59:31.097Z,74.56
2022-12-12T11:00:31.087Z,74.87
2022-12-12T11:02:07.912Z,75.08
2022-12-12T11:02:33.256Z,74.42
2022-12-12T11:03:31.085Z,74.91
2022-12-12T11:04:31.037Z,75.29
2022-12-12T11:05:31.021Z,73.77
2022-12-12T11:06:31.009Z,73.66
2022-12-12T11:07:30.998Z,74.08
2022-12-12T11:08:31.051Z,73.73
2022-12-12T11:09:31.003Z,73.49
2022-12-12T11:10:34.266Z,71.63
2022-12-12T11:11:30.947Z,70.80
2022-12-12T11:12:30.935Z,71.28
2022-12-12T11:13:30.922Z,70.83
2022-12-12T11:14:30.905Z,71.22
2022-12-12T11:15:30.896Z,71.08
2022-12-12T11:16:30.929Z,68.75
2022-12-12T11:17:30.870Z,66.34
2022-12-12T11:18:30.857Z,64.69
2022-12-12T11:19:30.844Z,65.13
2022-12-12T11:20:30.832Z,66.07
2022-12-12T11:21:30.836Z,65.30
2022-12-12T11:22:30.803Z,67.49
2022-12-12T11:23:30.792Z,69.59
2022-12-12T11:24:30.776Z,70.62
2022-12-12T11:25:30.789Z,69.86
2022-12-12T11:26:30.752Z,71.73
2022-12-12T11:27:30.740Z,71.38
2022-12-12T11:28:30.726Z,72.69
2022-12-12T11:29:30.714Z,73.52
2022-12-12T11:30:30.699Z,74.77
2022-12-12T11:31:30.738Z,74.63
2022-12-12T11:32:30.677Z,75.01
2022-12-12T11:33:30.661Z,73.94
2022-12-12T11:34:30.651Z,72.69
2022-12-12T11:35:30.639Z,72.32
2022-12-12T11:36:30.620Z,73.04
2022-12-12T11:37:30.610Z,73.59
2022-12-12T11:38:30.595Z,73.94
2022-12-12T11:39:30.584Z,74.25
2022-12-12T11:40:30.569Z,74.38
2022-12-12T11:41:30.579Z,75.01
2022-12-12T11:42:30.552Z,75.32
2022-12-12T11:43:30.533Z,75.95
2022-12-12T11:44:30.518Z,75.21
2022-12-12T11:45:30.576Z,75.50
2022-12-12T11:46:30.502Z,74.01
2022-12-12T11:47:30.480Z,74.08
2022-12-12T11:48:30.469Z,73.18
2022-12-12T11:49:30.458Z,73.77
2022-12-12T11:50:30.442Z,73.98
2022-12-12T11:51:30.432Z,73.87
2022-12-12T11:52:30.422Z,73.01
2022-12-12T11:53:30.410Z,73.63
2022-12-12T11:54:30.391Z,72.28
2022-12-12T11:55:30.381Z,72.73
2022-12-12T11:56:30.365Z,72.87
2022-12-12T11:57:30.425Z,72.42
2022-12-12T11:58:30.339Z,71.45
2022-12-12T11:59:30.327Z,70.70
2022-12-12T12:00:30.314Z,71.11
2022-12-12T12:01:30.303Z,70.56
2022-12-12T12:02:30.288Z,69.81
2022-12-12T12:03:30.380Z,69.26
2022-12-12T12:04:30.305Z,68.29
2022-12-12T12:05:30.252Z,68.90
2022-12-12T12:06:30.237Z,70.08
2022-12-12T12:07:30.228Z,70.04
2022-12-12T12:08:30.259Z,70.35
2022-12-12T12:09:30.201Z,70.73
2022-12-12T12:10:30.187Z,70.73
2022-12-12T12:11:30.176Z,71.77
2022-12-12T12:12:30.161Z,71.07
2022-12-12T12:13:30.180Z,71.66
2022-12-12T12:14:30.136Z,71.28
2022-12-12T12:15:30.126Z,71.49
2022-12-12T12:16:30.221Z,72.04
2022-12-12T12:17:30.102Z,72.14
2022-12-12T12:18:30.087Z,72.94
2022-12-12T12:19:30.075Z,73.98
2022-12-12T12:20:30.062Z,73.73
2022-12-12T12:21:30.050Z,73.11
2022-12-12T12:22:30.036Z,72.77
2022-12-12T12:23:30.024Z,72.46
2022-12-12T12:24:30.009Z,72.25
2022-12-12T12:25:29.998Z,72.66
2022-12-12T12:26:29.988Z,72.77
2022-12-12T12:27:29.973Z,73.01
2022-12-12T12:28:29.960Z,73.11
2022-12-12T12:29:29.972Z,73.07
2022-12-12T12:30:30.018Z,72.97
2022-12-12T12:31:29.924Z,73.11
2022-12-12T12:32:29.908Z,73.01
2022-12-12T12:33:29.896Z,73.35
2022-12-12T12:34:29.882Z,74.01
2022-12-12T12:35:29.871Z,74.29
2022-12-12T12:36:29.858Z,73.52
2022-12-12T12:37:29.845Z,72.80
2022-12-12T12:38:29.831Z,73.21
2022-12-12T12:39:29.818Z,73.18
2022-12-12T12:40:29.805Z,72.90
2022-12-12T12:41:29.792Z,72.18
2022-12-12T12:42:29.781Z,72.32
2022-12-12T12:43:29.769Z,72.52
2022-12-12T12:44:29.753Z,72.32
2022-12-12T12:45:29.770Z,72.55
2022-12-12T12:46:29.812Z,73.49
2022-12-12T12:47:29.716Z,73.07
2022-12-12T12:48:29.714Z,73.52
2022-12-12T12:49:29.699Z,72.69
2022-12-12T12:50:29.681Z,72.49
2022-12-12T12:51:29.665Z,72.04
2022-12-12T12:52:29.652Z,71.38
2022-12-12T12:53:29.640Z,70.56
2022-12-12T12:54:29.624Z,70.04